createdAt,value
2023-12-08T00:00:35.487Z,1.38
2023-12-08T00:03:02.701Z,1.17
2023-12-08T00:05:30.430Z,1.38
2023-12-08T00:07:57.682Z,1.52
2023-12-08T00:10:24.810Z,1.30
2023-12-08T00:12:51.972Z,1.48
2023-12-08T00:15:19.212Z,1.10
2023-12-08T00:17:46.419Z,1.35
2023-12-08T00:20:13.698Z,1.38
2023-12-08T00:22:41.917Z,1.67
2023-12-08T00:25:09.204Z,1.60
2023-12-08T00:27:37.241Z,1.58
2023-12-08T00:30:05.088Z,1.55
2023-12-08T00:32:32.412Z,1.30
2023-12-08T00:34:59.781Z,1.38
2023-12-08T00:37:27.276Z,1.40
2023-12-08T00:39:54.873Z,1.40
2023-12-08T00:42:22.214Z,1.50
2023-12-08T00:44:49.456Z,1.35
2023-12-08T00:47:16.689Z,1.45
2023-12-08T00:49:43.978Z,1.33
2023-12-08T00:52:11.246Z,1.20
2023-12-08T00:54:38.500Z,1.42
2023-12-08T00:57:05.896Z,1.23
2023-12-08T00:59:33.156Z,1.67
2023-12-08T01:02:00.403Z,1.40
2023-12-08T01:04:27.545Z,1.40
2023-12-08T01:06:54.808Z,1.10
2023-12-08T01:09:21.967Z,1.38
2023-12-08T01:11:50.488Z,1.75
2023-12-08T01:14:17.767Z,1.33
2023-12-08T01:16:45.301Z,1.20
2023-12-08T01:19:13.143Z,1.40
2023-12-08T01:21:41.487Z,1.10
2023-12-08T01:24:09.481Z,1.38
2023-12-08T01:26:36.763Z,1.55
2023-12-08T01:29:03.937Z,1.40
2023-12-08T01:31:31.084Z,1.50
2023-12-08T01:33:58.669Z,1.17
2023-12-08T01:36:41.634Z,1.55
2023-12-08T01:39:11.383Z,1.10
2023-12-08T01:41:39.419Z,1.40
2023-12-08T01:44:06.704Z,1.30
2023-12-08T01:46:33.955Z,1.20
2023-12-08T01:49:01.367Z,1.10
2023-12-08T01:51:29.580Z,1.38
2023-12-08T01:53:57.276Z,1.55
2023-12-08T01:56:24.904Z,1.23
2023-12-08T01:58:52.252Z,1.40
2023-12-08T02:01:19.863Z,1.40
2023-12-08T02:03:49.943Z,1.30
2023-12-08T02:06:17.333Z,1.30
2023-12-08T02:08:46.069Z,1.63
2023-12-08T02:11:14.467Z,1.42
2023-12-08T02:13:45.157Z,1.58
2023-12-08T02:16:15.434Z,1.30
2023-12-08T02:18:43.042Z,1.60
2023-12-08T02:21:10.415Z,1.13
2023-12-08T02:23:37.934Z,1.48
2023-12-08T02:26:06.484Z,1.40
2023-12-08T02:28:33.812Z,1.67
2023-12-08T02:31:02.008Z,1.50
2023-12-08T02:33:34.075Z,1.33
2023-12-08T02:36:02.801Z,1.38
2023-12-08T02:38:31.459Z,1.08
2023-12-08T02:40:58.903Z,1.35
2023-12-08T02:43:26.100Z,1.40
2023-12-08T02:45:53.250Z,1.40
2023-12-08T02:48:20.507Z,1.52
2023-12-08T02:50:47.864Z,1.20
2023-12-08T02:53:15.097Z,1.40
2023-12-08T02:55:42.219Z,1.60
2023-12-08T02:58:09.340Z,1.55
2023-12-08T03:00:36.574Z,1.55
2023-12-08T03:03:03.868Z,1.63
2023-12-08T03:05:31.220Z,1.65
2023-12-08T03:07:58.439Z,1.48
2023-12-08T03:10:25.813Z,1.50
2023-12-08T03:12:53.133Z,1.30
2023-12-08T03:15:20.316Z,1.70
2023-12-08T03:17:49.696Z,1.70
2023-12-08T03:20:17.035Z,1.42
2023-12-08T03:22:44.228Z,1.40
2023-12-08T03:25:11.478Z,1.63
2023-12-08T03:27:38.618Z,1.30
2023-12-08T03:30:06.084Z,1.30
2023-12-08T03:32:33.532Z,1.52
2023-12-08T03:35:01.338Z,1.50
2023-12-08T03:37:28.931Z,1.15
2023-12-08T03:39:56.337Z,1.42
2023-12-08T03:42:23.440Z,1.30
2023-12-08T03:44:50.645Z,1.40
2023-12-08T03:47:19.867Z,1.42
2023-12-08T03:49:47.283Z,1.20
2023-12-08T03:52:14.478Z,1.23
2023-12-08T03:54:41.641Z,1.60
2023-12-08T03:57:09.016Z,1.40
2023-12-08T03:59:36.421Z,1.60
2023-12-08T04:02:03.980Z,1.52
2023-12-08T04:04:31.281Z,1.58
2023-12-08T04:06:58.812Z,1.50
2023-12-08T04:09:28.782Z,1.60
2023-12-08T04:11:56.359Z,1.30
2023-12-08T04:14:23.561Z,1.58
2023-12-08T04:16:54.008Z,1.30
2023-12-08T04:19:22.010Z,1.45
2023-12-08T04:21:50.689Z,1.58
2023-12-08T04:24:17.928Z,1.30
2023-12-08T04:26:46.338Z,1.60
2023-12-08T04:29:13.659Z,1.23
2023-12-08T04:31:40.803Z,1.40
2023-12-08T04:34:08.098Z,1.30
2023-12-08T04:36:35.383Z,1.30
2023-12-08T04:39:02.810Z,1.20
2023-12-08T04:41:30.085Z,1.40
2023-12-08T04:43:57.244Z,1.55
2023-12-08T04:46:25.846Z,1.77
2023-12-08T04:48:53.209Z,1.10
2023-12-08T04:51:20.677Z,1.10
2023-12-08T04:53:47.964Z,1.35
2023-12-08T04:56:15.307Z,1.50
2023-12-08T04:58:42.454Z,1.38
2023-12-08T05:01:13.686Z,1.30
2023-12-08T05:03:41.286Z,1.17
2023-12-08T05:06:09.129Z,1.20
2023-12-08T05:08:37.057Z,1.25
2023-12-08T05:11:04.404Z,1.20
2023-12-08T05:13:31.550Z,1.20
2023-12-08T05:15:58.757Z,1.20
2023-12-08T05:18:26.156Z,1.38
2023-12-08T05:20:53.544Z,1.67
2023-12-08T05:23:21.071Z,1.45
2023-12-08T05:25:49.240Z,1.23
2023-12-08T05:28:16.540Z,1.20
2023-12-08T05:30:43.801Z,1.20
2023-12-08T05:33:11.334Z,1.30
2023-12-08T05:35:38.648Z,1.40
2023-12-08T05:38:06.000Z,1.42
2023-12-08T05:40:33.180Z,1.20
2023-12-08T05:43:00.292Z,1.50
2023-12-08T05:45:27.479Z,1.50
2023-12-08T05:47:54.892Z,1.52
2023-12-08T05:50:22.117Z,1.20
2023-12-08T05:52:49.873Z,1.20
2023-12-08T05:55:17.111Z,1.40
2023-12-08T05:57:44.410Z,1.45
2023-12-08T06:00:12.072Z,1.50
2023-12-08T06:02:39.451Z,1.30
2023-12-08T06:05:06.930Z,1.55
2023-12-08T06:07:35.247Z,1.20
2023-12-08T06:10:02.539Z,1.35
2023-12-08T06:12:29.712Z,1.60
2023-12-08T06:15:00.812Z,1.08
2023-12-08T06:17:29.690Z,1.23
2023-12-08T06:19:58.215Z,1.48
2023-12-08T06:22:25.555Z,1.58
2023-12-08T06:24:52.840Z,1.33
2023-12-08T06:27:20.132Z,1.50
2023-12-08T06:29:47.893Z,1.25
2023-12-08T06:32:15.146Z,2.20
2023-12-08T06:34:42.362Z,1.40
2023-12-08T06:37:09.577Z,1.30
2023-12-08T06:39:36.724Z,1.42
2023-12-08T06:42:04.006Z,1.38
2023-12-08T06:44:31.182Z,1.45
2023-12-08T06:46:58.376Z,1.60
2023-12-08T06:49:25.561Z,1.45
2023-12-08T06:51:52.822Z,1.60
2023-12-08T06:54:20.381Z,1.35
2023-12-08T06:56:47.734Z,1.60
2023-12-08T06:59:15.927Z,1.70
2023-12-08T07:01:43.197Z,1.77
2023-12-08T07:04:11.281Z,1.52
2023-12-08T07:06:38.556Z,1.50
2023-12-08T07:09:06.398Z,1.58
2023-12-08T07:11:33.649Z,1.90
2023-12-08T07:14:00.829Z,1.80
2023-12-08T07:16:28.697Z,1.75
2023-12-08T07:18:58.465Z,1.83
2023-12-08T07:21:26.120Z,1.50
2023-12-08T07:23:53.481Z,1.70
2023-12-08T07:26:20.662Z,1.70
2023-12-08T07:28:47.835Z,2.45
2023-12-08T07:31:15.172Z,1.40
2023-12-08T07:33:42.591Z,1.90
2023-12-08T07:36:10.079Z,1.67
2023-12-08T07:38:37.548Z,1.75
2023-12-08T07:41:04.890Z,2.38
2023-12-08T07:43:32.090Z,1.75
2023-12-08T07:45:59.364Z,1.70
2023-12-08T07:48:26.828Z,1.60
2023-12-08T07:50:54.134Z,1.70
2023-12-08T07:53:21.318Z,1.50
2023-12-08T07:55:48.584Z,2.50
2023-12-08T07:58:15.792Z,2.03
2023-12-08T08:00:43.981Z,1.80
2023-12-08T08:03:11.303Z,1.77
2023-12-08T08:05:38.639Z,3.25
2023-12-08T08:08:06.089Z,2.13
2023-12-08T08:10:33.836Z,1.80
2023-12-08T08:13:01.073Z,1.80
2023-12-08T08:15:31.628Z,1.70
2023-12-08T08:17:58.966Z,2.05
2023-12-08T08:20:27.352Z,2.35
2023-12-08T08:22:55.135Z,1.50
2023-12-08T08:25:22.330Z,1.80
2023-12-08T08:27:52.269Z,1.67
2023-12-08T08:30:22.433Z,1.70
2023-12-08T08:32:49.747Z,1.75
2023-12-08T08:35:17.137Z,2.10
2023-12-08T08:37:44.805Z,1.77
2023-12-08T08:40:12.245Z,1.63
2023-12-08T08:42:39.548Z,2.35
2023-12-08T08:45:09.134Z,2.13
2023-12-08T08:47:36.476Z,1.98
2023-12-08T08:50:04.064Z,2.30
2023-12-08T08:52:32.029Z,2.28
2023-12-08T08:54:59.335Z,1.73
2023-12-08T08:57:26.796Z,2.10
2023-12-08T08:59:54.238Z,1.80
2023-12-08T09:02:21.389Z,2.08
2023-12-08T09:04:48.603Z,1.80
2023-12-08T09:07:16.368Z,1.80
2023-12-08T09:09:44.944Z,1.75
2023-12-08T09:12:12.423Z,1.88
2023-12-08T09:14:39.720Z,2.50
2023-12-08T09:17:07.489Z,2.00
2023-12-08T09:19:34.737Z,2.20
2023-12-08T09:22:01.936Z,2.05
2023-12-08T09:24:29.256Z,1.92
2023-12-08T09:26:56.751Z,1.90
2023-12-08T09:29:24.312Z,1.90
2023-12-08T09:31:51.607Z,2.47
2023-12-08T09:34:18.935Z,2.40
2023-12-08T09:37:24.507Z,2.13
2023-12-08T09:39:34.198Z,1.80
2023-12-08T09:42:03.456Z,2.20
2023-12-08T09:44:31.413Z,2.33
2023-12-08T09:47:01.331Z,2.33
2023-12-08T09:49:32.387Z,1.70
2023-12-08T09:52:00.568Z,2.08
2023-12-08T09:54:27.849Z,3.15
2023-12-08T09:56:59.828Z,3.05
2023-12-08T09:59:30.054Z,2.35
2023-12-08T10:01:57.804Z,2.17
2023-12-08T10:04:27.489Z,2.15
2023-12-08T10:07:00.100Z,2.30
2023-12-08T10:09:28.672Z,2.08
2023-12-08T10:11:55.838Z,2.08
2023-12-08T10:14:23.193Z,2.55
2023-12-08T10:16:50.437Z,2.55
2023-12-08T10:19:21.747Z,2.00
2023-12-08T10:22:04.691Z,1.90
2023-12-08T10:24:32.692Z,2.15
2023-12-08T10:27:00.632Z,2.03
2023-12-08T10:29:32.274Z,2.45
2023-12-08T10:31:59.746Z,2.40
2023-12-08T10:34:27.540Z,2.10
2023-12-08T10:36:55.251Z,2.08
2023-12-08T10:39:24.111Z,2.13
2023-12-08T10:41:52.283Z,2.08
2023-12-08T10:44:21.568Z,2.17
2023-12-08T10:46:52.390Z,1.80
2023-12-08T10:49:20.447Z,2.83
2023-12-08T10:51:48.706Z,1.95
2023-12-08T10:54:17.558Z,2.17
2023-12-08T10:56:46.366Z,2.33
2023-12-08T10:59:19.298Z,2.10
2023-12-08T11:01:47.394Z,1.98
2023-12-08T11:04:18.527Z,2.80
2023-12-08T11:06:50.098Z,1.77
2023-12-08T11:09:18.380Z,2.50
2023-12-08T11:11:51.133Z,2.25
2023-12-08T11:14:27.004Z,2.05
2023-12-08T11:16:58.703Z,1.95
2023-12-08T11:19:27.511Z,2.13
2023-12-08T11:21:55.297Z,2.13
2023-12-08T11:24:22.897Z,1.80
2023-12-08T11:27:01.419Z,1.92
2023-12-08T11:29:35.705Z,2.47
2023-12-08T11:32:11.075Z,2.50
2023-12-08T11:34:38.393Z,2.33
2023-12-08T11:37:09.352Z,2.10
2023-12-08T11:39:36.676Z,2.10
2023-12-08T11:42:11.211Z,2.30
2023-12-08T11:44:39.324Z,2.60
2023-12-08T11:47:07.348Z,2.60
2023-12-08T11:49:34.713Z,2.30
2023-12-08T11:52:31.237Z,2.72
2023-12-08T11:57:34.516Z,2.28
2023-12-08T12:00:01.958Z,2.50
2023-12-08T12:02:29.867Z,2.70
2023-12-08T12:04:57.067Z,2.58
2023-12-08T12:07:25.534Z,2.40
2023-12-08T12:09:55.472Z,2.13
2023-12-08T12:12:33.036Z,2.72
2023-12-08T12:15:04.960Z,2.38
2023-12-08T12:17:32.293Z,2.03
2023-12-08T12:19:59.702Z,2.30
2023-12-08T12:22:26.829Z,2.63
2023-12-08T12:24:54.025Z,2.47
2023-12-08T12:27:21.286Z,2.85
2023-12-08T12:29:48.524Z,2.50
2023-12-08T12:32:15.746Z,2.20
2023-12-08T12:34:43.026Z,2.30
2023-12-08T12:37:12.052Z,2.50
2023-12-08T12:42:07.007Z,2.40
2023-12-08T12:44:41.030Z,2.42
2023-12-08T12:47:12.212Z,2.83
2023-12-08T12:49:46.365Z,2.50
2023-12-08T12:52:27.219Z,2.60
2023-12-08T12:54:54.654Z,2.55
2023-12-08T12:57:40.689Z,2.97
2023-12-08T13:00:10.656Z,2.40
2023-12-08T13:02:37.896Z,2.67
2023-12-08T13:05:08.519Z,2.53
2023-12-08T13:07:36.434Z,3.03
2023-12-08T13:10:05.901Z,2.45
2023-12-08T13:12:33.566Z,2.40
2023-12-08T13:15:04.939Z,2.17
2023-12-08T13:17:34.568Z,2.58
2023-12-08T13:20:03.119Z,2.15
2023-12-08T13:22:30.517Z,2.42
2023-12-08T13:24:57.704Z,2.58
2023-12-08T13:27:25.118Z,3.20
2023-12-08T13:29:52.482Z,2.53
2023-12-08T13:32:20.374Z,2.13
2023-12-08T13:34:47.619Z,2.33
2023-12-08T13:37:14.937Z,2.47
2023-12-08T13:39:42.144Z,2.88
2023-12-08T13:42:09.430Z,2.78
2023-12-08T13:44:36.621Z,2.72
2023-12-08T13:47:04.775Z,2.80
2023-12-08T13:49:32.026Z,2.80
2023-12-08T13:51:59.301Z,2.47
2023-12-08T13:54:26.720Z,2.60
2023-12-08T13:56:53.994Z,2.13
2023-12-08T13:59:21.292Z,2.40
2023-12-08T14:01:48.447Z,2.65
2023-12-08T14:04:16.590Z,2.70
2023-12-08T14:06:44.188Z,2.67
2023-12-08T14:09:11.699Z,2.33
2023-12-08T14:11:38.959Z,2.40
2023-12-08T14:14:06.324Z,2.55
2023-12-08T14:16:33.659Z,2.35
2023-12-08T14:19:01.110Z,2.30
2023-12-08T14:21:28.439Z,2.20
2023-12-08T14:23:56.051Z,2.88
2023-12-08T14:26:23.324Z,2.60
2023-12-08T14:28:50.566Z,2.38
2023-12-08T14:31:18.220Z,3.25
2023-12-08T14:33:45.568Z,2.30
2023-12-08T14:36:13.217Z,2.60
2023-12-08T14:38:41.263Z,2.20
2023-12-08T14:41:09.724Z,2.45
2023-12-08T14:43:37.008Z,2.45
2023-12-08T14:46:04.450Z,2.30
2023-12-08T14:48:31.840Z,1.80
2023-12-08T14:51:00.063Z,2.25
2023-12-08T14:53:27.388Z,2.55
2023-12-08T14:55:59.498Z,2.50
2023-12-08T14:58:27.840Z,1.90
2023-12-08T15:00:55.276Z,2.20
2023-12-08T15:03:22.687Z,2.45
2023-12-08T15:05:50.272Z,2.60
2023-12-08T15:08:17.491Z,2.13
2023-12-08T15:10:44.667Z,2.35
2023-12-08T15:13:13.697Z,2.08
2023-12-08T15:15:48.310Z,1.92
2023-12-08T15:20:51.332Z,2.63
2023-12-08T15:23:23.048Z,2.38
2023-12-08T15:25:50.377Z,2.40
2023-12-08T15:28:17.682Z,2.60
2023-12-08T15:30:44.871Z,2.38
2023-12-08T15:33:12.187Z,2.17
2023-12-08T15:35:39.430Z,2.50
2023-12-08T15:38:10.699Z,2.38
2023-12-08T15:40:38.087Z,2.08
2023-12-08T15:43:06.717Z,1.95
2023-12-08T15:45:34.408Z,2.35
2023-12-08T15:48:01.871Z,2.08
2023-12-08T15:50:29.441Z,2.30
2023-12-08T15:52:56.616Z,2.30
2023-12-08T15:55:25.648Z,1.75
2023-12-08T15:57:53.706Z,2.20
2023-12-08T16:00:21.595Z,1.83
2023-12-08T16:02:49.097Z,2.00
2023-12-08T16:05:16.537Z,2.25
2023-12-08T16:07:43.860Z,1.98
2023-12-08T16:10:11.196Z,2.13
2023-12-08T16:12:38.528Z,1.90
2023-12-08T16:15:10.881Z,2.42
2023-12-08T16:17:38.473Z,2.03
2023-12-08T16:20:06.154Z,2.25
2023-12-08T16:22:33.375Z,2.10
2023-12-08T16:25:00.561Z,1.98
2023-12-08T16:27:30.022Z,2.65
2023-12-08T16:29:57.638Z,1.85
2023-12-08T16:32:24.960Z,2.05
2023-12-08T16:34:52.152Z,1.90
2023-12-08T16:37:19.430Z,2.22
2023-12-08T16:39:46.824Z,2.10
2023-12-08T16:42:14.038Z,1.77
2023-12-08T16:44:41.699Z,2.35
2023-12-08T16:47:08.883Z,2.30
2023-12-08T16:49:36.140Z,2.05
2023-12-08T16:52:04.130Z,2.20
2023-12-08T16:54:31.817Z,2.40
2023-12-08T16:56:59.091Z,2.10
2023-12-08T16:59:26.363Z,2.10
2023-12-08T17:01:53.568Z,2.30
2023-12-08T17:04:20.809Z,2.05
2023-12-08T17:06:48.022Z,2.15
2023-12-08T17:09:15.330Z,1.92
2023-12-08T17:11:42.657Z,2.53
2023-12-08T17:14:09.891Z,1.77
2023-12-08T17:16:37.153Z,1.80
2023-12-08T17:19:04.533Z,1.90
2023-12-08T17:21:31.743Z,2.25
2023-12-08T17:23:58.858Z,2.03
2023-12-08T17:26:33.163Z,1.80
2023-12-08T17:29:06.703Z,1.83
2023-12-08T17:31:33.977Z,2.15
2023-12-08T17:34:11.697Z,1.95
2023-12-08T17:36:43.524Z,1.60
2023-12-08T17:39:10.742Z,1.73
2023-12-08T17:41:37.890Z,2.20
2023-12-08T17:44:05.100Z,2.58
2023-12-08T17:46:32.255Z,1.83
2023-12-08T17:48:59.718Z,1.88
2023-12-08T17:51:27.156Z,2.05
2023-12-08T17:53:54.479Z,1.92
2023-12-08T17:56:21.752Z,1.75
2023-12-08T17:58:49.022Z,2.17
2023-12-08T18:01:16.160Z,1.50
2023-12-08T18:03:43.509Z,1.90
2023-12-08T18:06:16.898Z,1.85
2023-12-08T18:08:44.261Z,1.90
2023-12-08T18:11:22.273Z,1.75
2023-12-08T18:13:50.317Z,2.17
2023-12-08T18:16:24.543Z,1.75
2023-12-08T18:18:51.906Z,1.60
2023-12-08T18:21:32.020Z,1.85
2023-12-08T18:23:59.954Z,2.05
2023-12-08T18:26:30.228Z,1.55
2023-12-08T18:29:08.168Z,1.65
2023-12-08T18:31:39.067Z,1.83
2023-12-08T18:34:06.669Z,1.80
2023-12-08T18:36:37.166Z,1.42
2023-12-08T18:39:05.397Z,1.80
2023-12-08T18:41:32.857Z,1.65
2023-12-08T18:44:00.606Z,1.80
2023-12-08T18:46:27.876Z,2.10
2023-12-08T18:48:58.539Z,1.60
2023-12-08T18:51:26.339Z,1.63
2023-12-08T18:53:54.184Z,1.70
2023-12-08T18:56:21.821Z,1.70
2023-12-08T18:58:54.816Z,2.15
2023-12-08T19:01:24.827Z,1.67
2023-12-08T19:03:52.411Z,2.00
2023-12-08T19:06:20.541Z,1.80
2023-12-08T19:08:48.064Z,1.52
2023-12-08T19:11:15.780Z,1.65
2023-12-08T19:13:44.480Z,1.85
2023-12-08T19:16:11.789Z,1.80
2023-12-08T19:18:39.240Z,1.80
2023-12-08T19:21:08.888Z,1.27
2023-12-08T19:23:36.184Z,1.88
2023-12-08T19:26:05.741Z,1.50
2023-12-08T19:28:33.172Z,1.75
2023-12-08T19:31:00.492Z,1.75
2023-12-08T19:33:27.913Z,1.85
2023-12-08T19:35:55.295Z,1.88
2023-12-08T19:38:22.563Z,1.83
2023-12-08T19:40:49.714Z,1.90
2023-12-08T19:43:16.865Z,1.80
2023-12-08T19:45:45.396Z,1.67
2023-12-08T19:48:16.996Z,1.77
2023-12-08T19:50:44.756Z,1.90
2023-12-08T19:53:12.332Z,1.88
2023-12-08T19:55:39.513Z,1.80
2023-12-08T19:58:06.737Z,1.92
2023-12-08T20:00:33.919Z,1.65
2023-12-08T20:03:01.268Z,1.90
2023-12-08T20:05:28.540Z,1.90
2023-12-08T20:07:56.001Z,1.73
2023-12-08T20:10:23.739Z,1.45
2023-12-08T20:12:50.929Z,1.80
2023-12-08T20:15:27.422Z,1.85
2023-12-08T20:17:56.031Z,1.73
2023-12-08T20:20:23.623Z,1.70
2023-12-08T20:22:50.797Z,1.67
2023-12-08T20:25:18.672Z,2.08
2023-12-08T20:27:47.278Z,1.83
2023-12-08T20:30:16.493Z,1.50
2023-12-08T20:35:10.951Z,1.95
2023-12-08T20:37:38.123Z,1.90
2023-12-08T20:40:05.541Z,1.85
2023-12-08T20:42:32.799Z,1.77
2023-12-08T20:45:00.065Z,2.28
2023-12-08T20:47:27.543Z,2.00
2023-12-08T20:49:55.930Z,1.90
2023-12-08T20:52:23.177Z,1.98
2023-12-08T20:54:50.428Z,2.53
2023-12-08T20:57:17.852Z,1.95
2023-12-08T20:59:45.588Z,2.00
2023-12-08T21:02:14.023Z,2.47
2023-12-08T21:04:41.275Z,1.98
2023-12-08T21:07:08.748Z,2.20
2023-12-08T21:09:36.172Z,1.80
2023-12-08T21:12:03.537Z,1.85
2023-12-08T21:14:30.780Z,2.38
2023-12-08T21:16:57.954Z,2.33
2023-12-08T21:19:26.125Z,2.40
2023-12-08T21:21:53.873Z,1.80
2023-12-08T21:24:21.279Z,1.98
2023-12-08T21:26:48.790Z,2.22
2023-12-08T21:29:16.184Z,2.40
2023-12-08T21:31:46.545Z,2.00
2023-12-08T21:34:13.844Z,2.50
2023-12-08T21:36:41.115Z,1.90
2023-12-08T21:39:08.340Z,2.22
2023-12-08T21:41:35.493Z,2.00
2023-12-08T21:44:03.093Z,2.10
2023-12-08T21:46:30.311Z,2.00
2023-12-08T21:49:00.820Z,2.05
2023-12-08T21:51:28.179Z,1.80
2023-12-08T21:53:55.721Z,1.90
2023-12-08T21:56:29.385Z,2.17
2023-12-08T21:58:58.484Z,1.73
2023-12-08T22:01:25.752Z,1.83
2023-12-08T22:03:57.219Z,1.90
2023-12-08T22:06:25.535Z,2.10
2023-12-08T22:08:52.900Z,1.95
2023-12-08T22:11:20.236Z,1.63
2023-12-08T22:13:47.804Z,1.52
2023-12-08T22:16:15.060Z,1.70
2023-12-08T22:18:42.686Z,1.70
2023-12-08T22:21:11.433Z,1.90
2023-12-08T22:26:06.076Z,1.88
2023-12-08T22:28:33.392Z,1.77
2023-12-08T22:31:00.643Z,1.83
2023-12-08T22:33:28.069Z,1.60
2023-12-08T22:35:55.482Z,2.17
2023-12-08T22:38:22.742Z,1.88
2023-12-08T22:40:49.884Z,1.90
2023-12-08T22:43:17.060Z,2.05
2023-12-08T22:45:44.213Z,1.70
2023-12-08T22:48:11.443Z,1.92
2023-12-08T22:50:46.393Z,1.65
2023-12-08T22:53:17.369Z,1.58
2023-12-08T22:55:44.759Z,1.90
2023-12-08T22:58:11.967Z,1.60
2023-12-08T23:00:39.315Z,2.05
2023-12-08T23:03:06.763Z,1.67
2023-12-08T23:05:34.370Z,1.80
2023-12-08T23:08:01.762Z,1.58
2023-12-08T23:10:29.006Z,1.90
2023-12-08T23:12:56.152Z,1.67
2023-12-08T23:15:23.676Z,1.60
2023-12-08T23:17:51.253Z,1.55
2023-12-08T23:20:18.696Z,1.60
2023-12-08T23:22:45.882Z,1.40
2023-12-08T23:25:13.194Z,1.65
2023-12-08T23:27:40.356Z,1.88
2023-12-08T23:30:08.085Z,1.40
2023-12-08T23:32:37.815Z,1.98
2023-12-08T23:35:07.604Z,1.65
2023-12-08T23:37:35.113Z,1.80
2023-12-08T23:40:02.307Z,1.70
2023-12-08T23:42:29.663Z,2.00
2023-12-08T23:44:57.066Z,2.13
2023-12-08T23:47:24.253Z,1.45
2023-12-08T23:49:51.429Z,1.77
2023-12-08T23:52:18.660Z,1.60
2023-12-08T23:54:46.186Z,1.70
2023-12-08T23:57:14.128Z,1.25
2023-12-08T23:59:41.675Z,1.95
